x

Monterey - 27nm Wnw Of Monterey, Ca (46042) Wave Buoy

7:50pm - Tue 19th Jun 2018 All times are PDT. -7 hours from GMT.

  • Sig Wave height 5.9ft
  • Swell Direction
  • Peak Period 12s
  • Average Period 5s
  • Wind
    22mph, 29mph gusts
  • Sea Temp 56°f
  • Air Temp 55°f
  • Sea Pressure 1016mb
  • Monterey - 27nm Wnw Of Monterey, Ca
  • Monterey - 27nm Wnw Of Monterey, Ca

More Historic Weather Station data

Upgrade to MSW Pro to gain access to the past 30 days of data for over 8000 Wavebouys and Weather Stations around the globe.

Join

Comparision Forecast

View Surf forecast
   
Tue 06/19 7:50pm 6ft 12s 5s 22 29 mph 1016mb 56f 55f
6:50pm 6ft 11s 5s 25 31 mph 1015.7mb 56f 55f
5:50pm 6ft 12s 6s 25 27 mph 1015.7mb 56f 55f
4:50pm 6ft 12s 6s 25 29 mph 1015.8mb 57f 56f
3:50pm 6ft 14s 6s 25 29 mph 1016.1mb 57f 56f
2:50pm 6ft 15s 6s 22 27 mph 1016.2mb 57f 55f
1:50pm 5ft 13s 6s 22 27 mph 1016.9mb 57f 55f
12:50pm 5ft 11s 6s 20 25 mph 1017.2mb 57f 55f
11:50am 5.5ft 13s 7s 18 20 mph 1017.6mb 56f 55f
10:50am 5.5ft 14s 7s 16 20 mph 1017.7mb 56f 54f
9:50am 6ft 12s 8s 16 20 mph 1017.5mb 56f 54f
8:50am 5ft 14s 7s 16 18 mph 1017.8mb 56f 54f
7:50am 6ft 12s 8s 13 18 mph 1017.5mb 56f 53f
6:50am 5.5ft 13s 8s 13 18 mph 1016.9mb 56f 53f
5:50am 6.5ft 13s 8s 16 18 mph 1016.4mb 56f 53f
4:50am 6ft 13s 8s 13 18 mph 1016.1mb 56f 53f
3:50am 6ft 13s 8s 13 16 mph 1016.1mb 56f 53f
2:50am 6ft 13s 8s 11 16 mph 1016.6mb 56f 53f
1:50am 5.5ft 15s 8s 11 16 mph 1016.8mb 56f 53f
12:50am 5.5ft 14s 8s 11 16 mph 1017.1mb 56f 53f
Mon 06/18 11:50pm 6ft 13s 9s 11 16 mph 1017.3mb 56f 54f
10:50pm 6ft 15s 8s 11 13 mph 1017.5mb 57f 54f
9:50pm 5ft 15s 7s 13 18 mph 1017mb 57f 55f
8:50pm 5.5ft 15s 7s 16 18 mph 1016.7mb 57f 55f
7:50pm 5.5ft 15s 7s 16 18 mph 1016.7mb 58f 56f
6:50pm 5ft 14s 7s 16 20 mph 1016.4mb 58f 56f
5:50pm 5ft 15s 8s 16 18 mph 1016.6mb 58f 56f
4:50pm 5ft 15s 8s 13 18 mph 1016.8mb 58f 57f
3:50pm 5ft 15s 9s 13 18 mph 1017.3mb 58f 57f
2:50pm 5.5ft 14s 9s 11 13 mph 1017.9mb 58f 57f
1:50pm 5ft 15s 9s 9 11 mph 1017.9mb 58f 57f
12:50pm 5.5ft 16s 9s 11 11 mph 1018.2mb 57f 57f
11:50am 6ft 13s 9s 9 11 mph 1018.3mb 57f 58f
10:50am 6ft 16s 9s 4 7 mph 1018.3mb 57f 57f
9:50am 6ft 14s 9s 4 7 mph 1018.1mb 57f 57f
8:50am 5.5ft 13s 9s 2 2 mph 1017.8mb 57f 57f
7:50am 5ft 16s 9s  -  2 mph 1017.6mb 57f 57f
6:50am 5.5ft 14s 9s 2 4 mph 1016.8mb 57f 57f
5:50am 5ft 13s 8s 2 4 mph 1016.2mb 57f 57f
4:50am 5.5ft 15s 9s 2 7 mph 1016mb 57f 57f
3:50am 5.5ft 14s 8s 4 7 mph 1015.8mb 57f 57f
2:50am 5.5ft 16s 8s 7 9 mph 1016mb 57f 57f
1:50am 6ft 15s 8s 4 4 mph 1016.1mb 57f 57f
12:50am 6ft 10s 8s 2 2 mph 1016.4mb 57f 58f
Sun 06/17 11:50pm 5.5ft 15s 8s 2 4 mph 1016.5mb 57f 58f
10:50pm 5.5ft 16s 8s 4 4 mph 1016.2mb 57f 58f
9:50pm 6ft 10s 8s 7 9 mph 1015.5mb 57f 58f
8:50pm 6ft 10s 8s 7 9 mph 1015mb 57f 57f
7:50pm 6ft 16s 8s 7 9 mph 1014.4mb 58f 57f
6:50pm 5ft 9s 8s 7 9 mph 1014.1mb 58f 58f
5:50pm 5.5ft 14s 8s 4 7 mph 1014mb 58f 58f
4:50pm 6.5ft 10s 8s 7 9 mph 1014.2mb 58f 58f
3:50pm 6ft 9s 7s 9 11 mph 1014.4mb 57f 58f
2:50pm 6.5ft 10s 7s 11 13 mph 1014.2mb 57f 57f
1:50pm 7ft 10s 7s 13 16 mph 1014.1mb 57f 57f
12:50pm 6ft 10s 7s 13 16 mph 1013.9mb 57f 57f
11:50am 6.5ft 10s 7s 13 16 mph 1013.7mb 57f 56f
10:50am 6ft 10s 7s 13 18 mph 1013.2mb 57f 56f
9:50am 7ft 10s 7s 13 18 mph 1012.7mb 57f 55f
8:50am 7ft 10s 8s 13 16 mph 1012.4mb 57f 55f
7:50am 7ft 10s 8s 7 9 mph 1012mb 57f 56f
6:50am 7ft 10s 8s 4 7 mph 1011.3mb 57f 56f
5:50am 7ft 10s 7s 7 9 mph 1010.7mb 57f 56f
4:50am 7.5ft 10s 7s 9 11 mph 1010.4mb 57f 56f
3:50am 7.5ft 9s 8s 7 9 mph 1010.3mb 57f 55f
2:50am 8ft 10s 8s 9 11 mph 1010.2mb 57f 56f
1:50am 8ft 10s 8s 9 13 mph 1010.1mb 57f 56f
12:50am 7.5ft 11s 8s 9 13 mph 1010mb 57f 57f
Sat 06/16 11:50pm 7.5ft 10s 8s 7 9 mph 1009.8mb 57f 56f
10:50pm 8ft 10s 8s 7 9 mph 1009.9mb 57f 55f
9:50pm 9ft 10s 8s 11 13 mph 1009.4mb 57f 55f
8:50pm 8.5ft 9s 8s 9 11 mph 1008.8mb 57f 55f
7:50pm 9ft 11s 8s 9 11 mph 1008.7mb 57f 55f
6:50pm 8.5ft 11s 7s 11 13 mph 1008.4mb 57f 55f
5:50pm 8.5ft 11s 7s 13 13 mph 1008.2mb 57f 55f
4:50pm 7ft 9s 7s 13 13 mph 1008.1mb 56f 56f
3:50pm 8ft 10s 7s 13 16 mph 1008.2mb 56f 56f
2:50pm 8ft 10s 7s 18 20 mph 1008.2mb 57f 55f
1:50pm 8.5ft 10s 7s 20 22 mph 1008.2mb 57f 55f
12:50pm 8.5ft 10s 7s 18 22 mph 1008.1mb 57f 54f
11:50am 8ft 10s 7s 11 13 mph 1008.2mb 57f 55f
10:50am 7.5ft 11s 7s 9 11 mph 1008.2mb 57f 55f
9:50am 8ft 11s 8s 7 9 mph 1007.9mb 57f 55f
8:50am 8.5ft 10s 8s 7 9 mph 1007.7mb 57f 55f
7:50am 8.5ft 9s 8s 7 9 mph 1007.4mb 57f 55f
6:50am 9ft 11s 8s 4 7 mph 1007.1mb 56f 55f
5:50am 8.5ft 10s 8s 4 9 mph 1007mb 56f 55f
4:50am 8ft 10s 7s 4 7 mph 1006.9mb 57f 55f
3:50am 9ft 10s 8s 9 11 mph 1006.8mb 57f 55f